Aérodrome :
LOGIN :

S'inscrire | Disclaimer

   EN    FR    IT 

 










Légende :    VFR   VFR Marginal   IFR   IFR Intensif   IFR Très Intensif
Visi : 
Plafond : 
>= 8 km
>= 3000ft
5 à 8 km
1000 à 3000 ft
1500m à 5 km
500 à 1000 ft
800 à 1500m
200 à 500 ft
< 800m
< 200 ft
Symboles :   Orages  Brouillard  Fortes neiges  Fortes précipitations  Vent > 20 kt
SIGMETs :   Divers  Orages  Givrage  Turbulence  Onde Orograph.  Cendres Volcan.






- Altitude de l'aérodrome : 20 ft
- Code IATA : LSI


EGPB - Sumburgh

DERNIER METAR :
  • 020720Z 30036G51KT 9000 VCSH FEW012CB BKN030 03/M03 Q0991 TEMPO SHRASN

METARs EXPIRÉS :
  • 020650Z 30037G55KT 8000 VCSH FEW012CB FEW031 BKN039 03/M04 Q0991 NOSIG
  • 020620Z 29034G54KT 250V050 7000 VCSH FEW005CB SCT017 BKN031 03/M02 Q0991
  • 020550Z AUTO 29026G38KT 9999 SCT017/// BKN033/// BKN049/// 03/M01 Q0991 RERA
  • 020520Z AUTO 30022G32KT 9999 BKN007/// OVC017/// 03/01 Q0992 RERA
  • 020450Z AUTO 28033G44KT 270V330 3800 -RA BKN009/// 04/02 Q0991 RERA

TAF AMD TAF EGPB
Valide du 02 à 06h jusqu'au 02 à 15h UTC


020613Z 0206/0215 28030G40KT 9999 SCT030
TEMPO 0206/0215 29045G55KT 4000 SHRASN BKN010
PROB40
TEMPO 0206/0215 1200 +SHRAGS +SHSN BKN008CB



MET'MAP, la Météo Aéronautique d'un coup d'oeil ! - Copyright ORBIFLY Décembre 2007 - Disclaimer

ORBIFLY MET'MAP TEAM :

Programmation & Développement : Alexandra Zaïnal
Sur une idée originale de : Baudouin d'Aumeries
Assistance à la programmation : Marc-Olivier Méhu
Soutien technique & logistique : Manuel Goepfert

Contact : metmap@orbifly.com




SOURCES & CREDITS :

   NOAA